sensor_id;sensor_type;location;lat;lon;timestamp;temperature;humidity
22364;DHT22;11349;53.412;-1.328;2024-01-15T00:01:42;0.90;99.90
22364;DHT22;11349;53.412;-1.328;2024-01-15T00:04:09;0.90;99.90
22364;DHT22;11349;53.412;-1.328;2024-01-15T00:06:34;0.90;99.90
22364;DHT22;11349;53.412;-1.328;2024-01-15T00:09:00;0.90;99.90
22364;DHT22;11349;53.412;-1.328;2024-01-15T00:11:26;0.90;99.90
22364;DHT22;11349;53.412;-1.328;2024-01-15T00:13:52;0.90;99.90
22364;DHT22;11349;53.412;-1.328;2024-01-15T00:16:18;0.90;99.90
22364;DHT22;11349;53.412;-1.328;2024-01-15T00:18:43;0.90;99.90
22364;DHT22;11349;53.412;-1.328;2024-01-15T00:21:10;0.80;99.90
22364;DHT22;11349;53.412;-1.328;2024-01-15T00:23:35;0.80;99.90
22364;DHT22;11349;53.412;-1.328;2024-01-15T00:26:01;0.70;99.90
22364;DHT22;11349;53.412;-1.328;2024-01-15T00:28:27;0.70;99.90
22364;DHT22;11349;53.412;-1.328;2024-01-15T00:30:52;0.70;99.90
22364;DHT22;11349;53.412;-1.328;2024-01-15T00:33:18;0.70;99.90
22364;DHT22;11349;53.412;-1.328;2024-01-15T00:35:44;0.60;99.90
22364;DHT22;11349;53.412;-1.328;2024-01-15T00:38:09;0.60;99.90
22364;DHT22;11349;53.412;-1.328;2024-01-15T00:40:35;0.50;99.90
22364;DHT22;11349;53.412;-1.328;2024-01-15T00:43:01;0.50;99.90
22364;DHT22;11349;53.412;-1.328;2024-01-15T00:45:27;0.50;99.90
22364;DHT22;11349;53.412;-1.328;2024-01-15T00:47:53;0.50;99.90
22364;DHT22;11349;53.412;-1.328;2024-01-15T00:50:22;0.40;99.90
22364;DHT22;11349;53.412;-1.328;2024-01-15T00:52:47;0.40;99.90
22364;DHT22;11349;53.412;-1.328;2024-01-15T00:55:13;0.40;99.90
22364;DHT22;11349;53.412;-1.328;2024-01-15T00:57:39;0.40;99.90
22364;DHT22;11349;53.412;-1.328;2024-01-15T01:00:06;0.30;99.90
22364;DHT22;11349;53.412;-1.328;2024-01-15T01:02:32;0.40;99.90
22364;DHT22;11349;53.412;-1.328;2024-01-15T01:04:57;0.40;99.90
22364;DHT22;11349;53.412;-1.328;2024-01-15T01:07:23;0.30;99.90
22364;DHT22;11349;53.412;-1.328;2024-01-15T01:09:49;0.30;99.90
22364;DHT22;11349;53.412;-1.328;2024-01-15T01:12:16;0.30;99.90
22364;DHT22;11349;53.412;-1.328;2024-01-15T01:14:42;0.30;99.90
22364;DHT22;11349;53.412;-1.328;2024-01-15T01:17:07;0.30;99.90
22364;DHT22;11349;53.412;-1.328;2024-01-15T01:19:33;0.30;99.90
22364;DHT22;11349;53.412;-1.328;2024-01-15T01:21:59;0.30;99.90
22364;DHT22;11349;53.412;-1.328;2024-01-15T01:24:24;0.30;99.90
22364;DHT22;11349;53.412;-1.328;2024-01-15T01:26:50;0.30;99.90
22364;DHT22;11349;53.412;-1.328;2024-01-15T01:29:16;0.30;99.90
22364;DHT22;11349;53.412;-1.328;2024-01-15T01:31:45;0.30;99.90
22364;DHT22;11349;53.412;-1.328;2024-01-15T01:34:14;0.30;99.90
22364;DHT22;11349;53.412;-1.328;2024-01-15T01:36:40;0.30;99.90
22364;DHT22;11349;53.412;-1.328;2024-01-15T01:39:06;0.30;99.90
22364;DHT22;11349;53.412;-1.328;2024-01-15T01:41:32;0.20;99.90
22364;DHT22;11349;53.412;-1.328;2024-01-15T01:43:57;0.20;99.90
22364;DHT22;11349;53.412;-1.328;2024-01-15T01:46:24;0.20;99.90
22364;DHT22;11349;53.412;-1.328;2024-01-15T01:48:52;0.20;99.90
22364;DHT22;11349;53.412;-1.328;2024-01-15T01:51:18;0.20;99.90
22364;DHT22;11349;53.412;-1.328;2024-01-15T01:53:45;0.20;99.90
22364;DHT22;11349;53.412;-1.328;2024-01-15T01:56:12;0.20;99.90
22364;DHT22;11349;53.412;-1.328;2024-01-15T01:58:38;0.10;99.90
22364;DHT22;11349;53.412;-1.328;2024-01-15T02:01:04;0.10;99.90
22364;DHT22;11349;53.412;-1.328;2024-01-15T02:03:30;0.10;99.90
22364;DHT22;11349;53.412;-1.328;2024-01-15T02:05:57;0.00;99.90
22364;DHT22;11349;53.412;-1.328;2024-01-15T02:08:22;0.10;99.90
22364;DHT22;11349;53.412;-1.328;2024-01-15T02:10:48;0.00;99.90
22364;DHT22;11349;53.412;-1.328;2024-01-15T02:13:14;0.00;99.90
22364;DHT22;11349;53.412;-1.328;2024-01-15T02:15:40;0.00;99.90
22364;DHT22;11349;53.412;-1.328;2024-01-15T02:18:06;0.00;99.90
22364;DHT22;11349;53.412;-1.328;2024-01-15T02:20:35;0.00;99.90
22364;DHT22;11349;53.412;-1.328;2024-01-15T02:23:12;-0.10;99.90
22364;DHT22;11349;53.412;-1.328;2024-01-15T02:25:42;-0.10;99.90
22364;DHT22;11349;53.412;-1.328;2024-01-15T02:28:11;-0.10;99.90
22364;DHT22;11349;53.412;-1.328;2024-01-15T02:30:38;-0.10;99.90
22364;DHT22;11349;53.412;-1.328;2024-01-15T02:33:10;-0.10;99.90
22364;DHT22;11349;53.412;-1.328;2024-01-15T02:35:36;-0.10;99.90
22364;DHT22;11349;53.412;-1.328;2024-01-15T02:38:03;-0.10;99.90
22364;DHT22;11349;53.412;-1.328;2024-01-15T02:40:29;-0.10;99.90
22364;DHT22;11349;53.412;-1.328;2024-01-15T02:42:55;-0.10;99.90
22364;DHT22;11349;53.412;-1.328;2024-01-15T02:45:21;-0.20;99.90
22364;DHT22;11349;53.412;-1.328;2024-01-15T02:47:47;-0.10;99.90
22364;DHT22;11349;53.412;-1.328;2024-01-15T02:50:13;-0.10;99.90
22364;DHT22;11349;53.412;-1.328;2024-01-15T02:52:39;-0.10;99.90
22364;DHT22;11349;53.412;-1.328;2024-01-15T02:55:05;-0.10;99.90
22364;DHT22;11349;53.412;-1.328;2024-01-15T02:57:31;-0.20;99.90
22364;DHT22;11349;53.412;-1.328;2024-01-15T02:59:57;-0.10;99.90
22364;DHT22;11349;53.412;-1.328;2024-01-15T03:02:22;-0.10;99.90
22364;DHT22;11349;53.412;-1.328;2024-01-15T03:04:48;-0.10;99.90
22364;DHT22;11349;53.412;-1.328;2024-01-15T03:07:14;-0.10;99.90
22364;DHT22;11349;53.412;-1.328;2024-01-15T03:09:39;-0.10;99.90
22364;DHT22;11349;53.412;-1.328;2024-01-15T03:12:06;-0.10;99.90
22364;DHT22;11349;53.412;-1.328;2024-01-15T03:14:31;-0.10;99.90
22364;DHT22;11349;53.412;-1.328;2024-01-15T03:16:57;-0.10;99.90
22364;DHT22;11349;53.412;-1.328;2024-01-15T03:19:23;-0.10;99.90
22364;DHT22;11349;53.412;-1.328;2024-01-15T03:21:48;0.00;99.90
22364;DHT22;11349;53.412;-1.328;2024-01-15T03:24:14;-0.10;99.90
22364;DHT22;11349;53.412;-1.328;2024-01-15T03:26:40;-0.10;99.90
22364;DHT22;11349;53.412;-1.328;2024-01-15T03:29:07;-0.10;99.90
22364;DHT22;11349;53.412;-1.328;2024-01-15T03:31:33;-0.10;99.90
22364;DHT22;11349;53.412;-1.328;2024-01-15T03:33:59;-0.20;99.90
22364;DHT22;11349;53.412;-1.328;2024-01-15T03:36:24;-0.20;99.90
22364;DHT22;11349;53.412;-1.328;2024-01-15T03:38:50;-0.20;99.90
22364;DHT22;11349;53.412;-1.328;2024-01-15T03:41:16;-0.20;99.90
22364;DHT22;11349;53.412;-1.328;2024-01-15T03:43:42;-0.20;99.90
22364;DHT22;11349;53.412;-1.328;2024-01-15T03:46:07;-0.20;99.90
22364;DHT22;11349;53.412;-1.328;2024-01-15T03:48:33;-0.20;99.90
22364;DHT22;11349;53.412;-1.328;2024-01-15T03:50:59;-0.20;99.90
22364;DHT22;11349;53.412;-1.328;2024-01-15T03:53:24;-0.20;99.90
22364;DHT22;11349;53.412;-1.328;2024-01-15T03:55:50;-0.20;99.90
22364;DHT22;11349;53.412;-1.328;2024-01-15T03:58:16;-0.10;99.90
22364;DHT22;11349;53.412;-1.328;2024-01-15T04:00:42;-0.10;99.90
22364;DHT22;11349;53.412;-1.328;2024-01-15T04:03:08;-0.10;99.90
22364;DHT22;11349;53.412;-1.328;2024-01-15T04:05:34;0.00;99.90
22364;DHT22;11349;53.412;-1.328;2024-01-15T04:08:00;-0.10;99.90
22364;DHT22;11349;53.412;-1.328;2024-01-15T04:10:25;-0.10;99.90
22364;DHT22;11349;53.412;-1.328;2024-01-15T04:12:51;0.00;99.90
22364;DHT22;11349;53.412;-1.328;2024-01-15T04:15:17;-0.10;99.90
22364;DHT22;11349;53.412;-1.328;2024-01-15T04:17:43;-0.10;99.90
22364;DHT22;11349;53.412;-1.328;2024-01-15T04:20:09;-0.10;99.90
22364;DHT22;11349;53.412;-1.328;2024-01-15T04:22:35;-0.10;99.90
22364;DHT22;11349;53.412;-1.328;2024-01-15T04:25:01;-0.20;99.90
22364;DHT22;11349;53.412;-1.328;2024-01-15T04:27:27;-0.10;99.90
22364;DHT22;11349;53.412;-1.328;2024-01-15T04:29:53;-0.10;99.90
22364;DHT22;11349;53.412;-1.328;2024-01-15T04:32:19;-0.20;99.90
22364;DHT22;11349;53.412;-1.328;2024-01-15T04:34:45;-0.20;99.90
22364;DHT22;11349;53.412;-1.328;2024-01-15T04:37:11;-0.20;99.90
22364;DHT22;11349;53.412;-1.328;2024-01-15T04:39:36;-0.20;99.90
22364;DHT22;11349;53.412;-1.328;2024-01-15T04:42:03;-0.20;99.90
22364;DHT22;11349;53.412;-1.328;2024-01-15T04:44:28;-0.20;99.90
22364;DHT22;11349;53.412;-1.328;2024-01-15T04:46:57;-0.20;99.90
22364;DHT22;11349;53.412;-1.328;2024-01-15T04:49:23;-0.20;99.90
22364;DHT22;11349;53.412;-1.328;2024-01-15T04:51:51;-0.20;99.90
22364;DHT22;11349;53.412;-1.328;2024-01-15T04:54:17;-0.20;99.90
22364;DHT22;11349;53.412;-1.328;2024-01-15T04:56:44;-0.10;99.90
22364;DHT22;11349;53.412;-1.328;2024-01-15T04:59:10;-0.10;99.90
22364;DHT22;11349;53.412;-1.328;2024-01-15T05:01:36;-0.20;99.90
22364;DHT22;11349;53.412;-1.328;2024-01-15T05:04:02;-0.20;99.90
22364;DHT22;11349;53.412;-1.328;2024-01-15T05:06:28;-0.10;99.90
22364;DHT22;11349;53.412;-1.328;2024-01-15T05:08:54;-0.10;99.90
22364;DHT22;11349;53.412;-1.328;2024-01-15T05:11:19;-0.10;99.90
22364;DHT22;11349;53.412;-1.328;2024-01-15T05:13:45;0.00;99.90
22364;DHT22;11349;53.412;-1.328;2024-01-15T05:16:11;0.10;99.80
22364;DHT22;11349;53.412;-1.328;2024-01-15T05:18:36;0.10;99.70
22364;DHT22;11349;53.412;-1.328;2024-01-15T05:21:03;0.10;99.90
22364;DHT22;11349;53.412;-1.328;2024-01-15T05:23:31;0.10;99.90
22364;DHT22;11349;53.412;-1.328;2024-01-15T05:25:57;0.20;99.50
22364;DHT22;11349;53.412;-1.328;2024-01-15T05:28:23;0.10;99.80
22364;DHT22;11349;53.412;-1.328;2024-01-15T05:30:48;0.20;99.40
22364;DHT22;11349;53.412;-1.328;2024-01-15T05:33:16;0.10;99.40
22364;DHT22;11349;53.412;-1.328;2024-01-15T05:35:42;0.10;99.90
22364;DHT22;11349;53.412;-1.328;2024-01-15T05:38:08;0.20;99.30
22364;DHT22;11349;53.412;-1.328;2024-01-15T05:40:33;0.10;99.80
22364;DHT22;11349;53.412;-1.328;2024-01-15T05:42:59;0.20;99.50
22364;DHT22;11349;53.412;-1.328;2024-01-15T05:45:26;0.20;99.10
22364;DHT22;11349;53.412;-1.328;2024-01-15T05:47:52;0.10;99.70
22364;DHT22;11349;53.412;-1.328;2024-01-15T05:50:18;0.10;99.90
22364;DHT22;11349;53.412;-1.328;2024-01-15T05:52:43;0.10;99.60
22364;DHT22;11349;53.412;-1.328;2024-01-15T05:55:09;0.10;99.70
22364;DHT22;11349;53.412;-1.328;2024-01-15T05:57:36;0.10;99.40
22364;DHT22;11349;53.412;-1.328;2024-01-15T06:00:02;0.10;99.90
22364;DHT22;11349;53.412;-1.328;2024-01-15T06:02:28;0.10;99.50
22364;DHT22;11349;53.412;-1.328;2024-01-15T06:04:54;0.10;99.60
22364;DHT22;11349;53.412;-1.328;2024-01-15T06:07:19;0.20;99.90
22364;DHT22;11349;53.412;-1.328;2024-01-15T06:09:48;0.20;99.90
22364;DHT22;11349;53.412;-1.328;2024-01-15T06:12:14;0.10;99.30
22364;DHT22;11349;53.412;-1.328;2024-01-15T06:14:39;0.20;99.50
22364;DHT22;11349;53.412;-1.328;2024-01-15T06:17:06;0.10;99.40
22364;DHT22;11349;53.412;-1.328;2024-01-15T06:19:32;0.20;98.90
22364;DHT22;11349;53.412;-1.328;2024-01-15T06:21:58;0.10;99.20
22364;DHT22;11349;53.412;-1.328;2024-01-15T06:24:24;0.20;98.90
22364;DHT22;11349;53.412;-1.328;2024-01-15T06:26:49;0.20;99.00
22364;DHT22;11349;53.412;-1.328;2024-01-15T06:29:15;0.10;99.50
22364;DHT22;11349;53.412;-1.328;2024-01-15T06:31:41;0.20;98.80
22364;DHT22;11349;53.412;-1.328;2024-01-15T06:34:06;0.20;98.80
22364;DHT22;11349;53.412;-1.328;2024-01-15T06:36:32;0.30;98.90
22364;DHT22;11349;53.412;-1.328;2024-01-15T06:38:58;0.20;99.50
22364;DHT22;11349;53.412;-1.328;2024-01-15T06:41:23;0.10;99.90
22364;DHT22;11349;53.412;-1.328;2024-01-15T06:43:51;0.10;99.90
22364;DHT22;11349;53.412;-1.328;2024-01-15T06:46:20;0.10;99.90
22364;DHT22;11349;53.412;-1.328;2024-01-15T06:48:46;0.00;99.90
22364;DHT22;11349;53.412;-1.328;2024-01-15T06:51:12;0.10;99.90
22364;DHT22;11349;53.412;-1.328;2024-01-15T06:53:38;0.10;99.90
22364;DHT22;11349;53.412;-1.328;2024-01-15T06:56:04;0.10;99.90
22364;DHT22;11349;53.412;-1.328;2024-01-15T06:58:31;0.10;99.90
22364;DHT22;11349;53.412;-1.328;2024-01-15T07:00:57;0.10;99.90
22364;DHT22;11349;53.412;-1.328;2024-01-15T07:03:23;0.00;99.90
22364;DHT22;11349;53.412;-1.328;2024-01-15T07:05:49;0.00;99.90
22364;DHT22;11349;53.412;-1.328;2024-01-15T07:08:14;0.00;99.90
22364;DHT22;11349;53.412;-1.328;2024-01-15T07:10:40;0.00;99.90
22364;DHT22;11349;53.412;-1.328;2024-01-15T07:13:06;0.00;99.90
22364;DHT22;11349;53.412;-1.328;2024-01-15T07:15:32;0.00;99.90
22364;DHT22;11349;53.412;-1.328;2024-01-15T07:17:57;0.00;99.90
22364;DHT22;11349;53.412;-1.328;2024-01-15T07:20:25;0.00;99.90
22364;DHT22;11349;53.412;-1.328;2024-01-15T07:22:51;0.00;99.90
22364;DHT22;11349;53.412;-1.328;2024-01-15T07:25:16;0.00;99.90
22364;DHT22;11349;53.412;-1.328;2024-01-15T07:27:42;0.00;99.90
22364;DHT22;11349;53.412;-1.328;2024-01-15T07:30:11;0.00;99.90
22364;DHT22;11349;53.412;-1.328;2024-01-15T07:32:37;-0.10;99.90
22364;DHT22;11349;53.412;-1.328;2024-01-15T07:35:04;-0.10;99.90
22364;DHT22;11349;53.412;-1.328;2024-01-15T07:37:29;0.00;99.90
22364;DHT22;11349;53.412;-1.328;2024-01-15T07:39:55;-0.10;99.90
22364;DHT22;11349;53.412;-1.328;2024-01-15T07:42:21;0.00;99.90
22364;DHT22;11349;53.412;-1.328;2024-01-15T07:44:46;-0.10;99.90
22364;DHT22;11349;53.412;-1.328;2024-01-15T07:47:12;-0.20;99.90
22364;DHT22;11349;53.412;-1.328;2024-01-15T07:49:38;-0.10;99.90
22364;DHT22;11349;53.412;-1.328;2024-01-15T07:52:04;-0.10;99.90
22364;DHT22;11349;53.412;-1.328;2024-01-15T07:54:31;-0.10;99.40
22364;DHT22;11349;53.412;-1.328;2024-01-15T07:56:58;-0.10;99.70
22364;DHT22;11349;53.412;-1.328;2024-01-15T07:59:24;-0.10;99.70
22364;DHT22;11349;53.412;-1.328;2024-01-15T08:01:51;-0.20;99.90
22364;DHT22;11349;53.412;-1.328;2024-01-15T08:04:17;-0.20;99.90
22364;DHT22;11349;53.412;-1.328;2024-01-15T08:06:43;-0.20;99.90
22364;DHT22;11349;53.412;-1.328;2024-01-15T08:09:08;-0.20;99.90
22364;DHT22;11349;53.412;-1.328;2024-01-15T08:11:35;-0.20;99.90
22364;DHT22;11349;53.412;-1.328;2024-01-15T08:14:01;-0.20;99.90
22364;DHT22;11349;53.412;-1.328;2024-01-15T08:16:26;-0.20;99.90
22364;DHT22;11349;53.412;-1.328;2024-01-15T08:18:53;-0.20;99.90
22364;DHT22;11349;53.412;-1.328;2024-01-15T08:21:19;-0.20;99.90
22364;DHT22;11349;53.412;-1.328;2024-01-15T08:23:45;-0.20;99.90
22364;DHT22;11349;53.412;-1.328;2024-01-15T08:26:11;-0.20;99.90
22364;DHT22;11349;53.412;-1.328;2024-01-15T08:28:37;-0.20;99.60
22364;DHT22;11349;53.412;-1.328;2024-01-15T08:31:02;-0.20;99.90
22364;DHT22;11349;53.412;-1.328;2024-01-15T08:33:29;-0.10;99.70
22364;DHT22;11349;53.412;-1.328;2024-01-15T08:35:54;-0.10;99.90
22364;DHT22;11349;53.412;-1.328;2024-01-15T08:38:20;-0.10;99.00
22364;DHT22;11349;53.412;-1.328;2024-01-15T08:40:46;0.00;99.00
22364;DHT22;11349;53.412;-1.328;2024-01-15T08:43:12;-0.10;98.70
22364;DHT22;11349;53.412;-1.328;2024-01-15T08:45:38;0.00;99.00
22364;DHT22;11349;53.412;-1.328;2024-01-15T08:48:04;0.00;99.00
22364;DHT22;11349;53.412;-1.328;2024-01-15T08:50:32;0.00;98.80
22364;DHT22;11349;53.412;-1.328;2024-01-15T08:52:59;0.10;98.90
22364;DHT22;11349;53.412;-1.328;2024-01-15T08:55:24;0.10;98.00
22364;DHT22;11349;53.412;-1.328;2024-01-15T08:57:50;0.10;97.60
22364;DHT22;11349;53.412;-1.328;2024-01-15T09:00:17;0.10;97.60
22364;DHT22;11349;53.412;-1.328;2024-01-15T09:02:43;0.10;97.80
22364;DHT22;11349;53.412;-1.328;2024-01-15T09:05:09;0.10;97.40
22364;DHT22;11349;53.412;-1.328;2024-01-15T09:07:35;0.10;97.30
22364;DHT22;11349;53.412;-1.328;2024-01-15T09:10:00;0.10;97.80
22364;DHT22;11349;53.412;-1.328;2024-01-15T09:12:27;0.20;96.90
22364;DHT22;11349;53.412;-1.328;2024-01-15T09:14:53;0.30;96.60
22364;DHT22;11349;53.412;-1.328;2024-01-15T09:17:20;0.20;95.40
22364;DHT22;11349;53.412;-1.328;2024-01-15T09:19:45;0.20;95.50
22364;DHT22;11349;53.412;-1.328;2024-01-15T09:22:13;0.20;95.10
22364;DHT22;11349;53.412;-1.328;2024-01-15T09:24:40;0.30;95.40
22364;DHT22;11349;53.412;-1.328;2024-01-15T09:27:10;0.30;95.60
22364;DHT22;11349;53.412;-1.328;2024-01-15T09:29:36;0.40;94.00
22364;DHT22;11349;53.412;-1.328;2024-01-15T09:32:05;0.40;94.40
22364;DHT22;11349;53.412;-1.328;2024-01-15T09:34:33;0.40;93.90
22364;DHT22;11349;53.412;-1.328;2024-01-15T09:36:58;0.40;93.20
22364;DHT22;11349;53.412;-1.328;2024-01-15T09:39:26;0.40;93.10
22364;DHT22;11349;53.412;-1.328;2024-01-15T09:41:53;0.50;92.90
22364;DHT22;11349;53.412;-1.328;2024-01-15T09:44:19;0.70;92.00
22364;DHT22;11349;53.412;-1.328;2024-01-15T09:46:46;0.60;91.70
22364;DHT22;11349;53.412;-1.328;2024-01-15T09:49:15;0.50;92.30
22364;DHT22;11349;53.412;-1.328;2024-01-15T09:51:42;0.60;91.70
22364;DHT22;11349;53.412;-1.328;2024-01-15T09:54:08;0.60;91.90
22364;DHT22;11349;53.412;-1.328;2024-01-15T09:56:34;0.60;91.30
22364;DHT22;11349;53.412;-1.328;2024-01-15T09:59:01;0.70;91.30
22364;DHT22;11349;53.412;-1.328;2024-01-15T10:01:29;0.60;89.90
22364;DHT22;11349;53.412;-1.328;2024-01-15T10:03:56;0.70;90.80
22364;DHT22;11349;53.412;-1.328;2024-01-15T10:06:22;0.90;90.30
22364;DHT22;11349;53.412;-1.328;2024-01-15T10:08:51;0.80;85.90
22364;DHT22;11349;53.412;-1.328;2024-01-15T10:11:17;0.80;85.40
22364;DHT22;11349;53.412;-1.328;2024-01-15T10:13:46;0.90;88.40
22364;DHT22;11349;53.412;-1.328;2024-01-15T10:16:12;0.90;84.30
22364;DHT22;11349;53.412;-1.328;2024-01-15T10:18:38;1.00;85.10
22364;DHT22;11349;53.412;-1.328;2024-01-15T10:21:07;1.00;85.50
22364;DHT22;11349;53.412;-1.328;2024-01-15T10:23:33;1.10;81.50
22364;DHT22;11349;53.412;-1.328;2024-01-15T10:26:00;1.10;80.00
22364;DHT22;11349;53.412;-1.328;2024-01-15T10:28:26;1.20;77.50
22364;DHT22;11349;53.412;-1.328;2024-01-15T10:30:55;1.10;76.40
22364;DHT22;11349;53.412;-1.328;2024-01-15T10:33:24;1.20;77.50
22364;DHT22;11349;53.412;-1.328;2024-01-15T10:35:54;1.10;75.00
22364;DHT22;11349;53.412;-1.328;2024-01-15T10:38:24;1.10;77.90
22364;DHT22;11349;53.412;-1.328;2024-01-15T10:40:54;1.20;77.40
22364;DHT22;11349;53.412;-1.328;2024-01-15T10:43:21;1.20;75.10
22364;DHT22;11349;53.412;-1.328;2024-01-15T10:45:48;1.30;77.40
22364;DHT22;11349;53.412;-1.328;2024-01-15T10:48:15;1.40;74.10
22364;DHT22;11349;53.412;-1.328;2024-01-15T10:50:41;1.40;73.30
22364;DHT22;11349;53.412;-1.328;2024-01-15T10:53:08;1.40;70.40
22364;DHT22;11349;53.412;-1.328;2024-01-15T10:55:35;1.40;69.10
22364;DHT22;11349;53.412;-1.328;2024-01-15T10:58:03;1.40;69.10
22364;DHT22;11349;53.412;-1.328;2024-01-15T11:00:30;1.40;67.40
22364;DHT22;11349;53.412;-1.328;2024-01-15T11:02:56;1.40;64.60
22364;DHT22;11349;53.412;-1.328;2024-01-15T11:05:22;1.60;63.90
22364;DHT22;11349;53.412;-1.328;2024-01-15T11:07:49;1.50;65.50
22364;DHT22;11349;53.412;-1.328;2024-01-15T11:10:47;1.50;62.90
22364;DHT22;11349;53.412;-1.328;2024-01-15T11:13:45;1.50;62.90
22364;DHT22;11349;53.412;-1.328;2024-01-15T11:16:13;1.60;63.80
22364;DHT22;11349;53.412;-1.328;2024-01-15T11:18:48;1.50;61.80
22364;DHT22;11349;53.412;-1.328;2024-01-15T11:21:26;1.50;60.70
22364;DHT22;11349;53.412;-1.328;2024-01-15T11:23:59;1.60;60.20
22364;DHT22;11349;53.412;-1.328;2024-01-15T11:29:08;1.70;59.40
22364;DHT22;11349;53.412;-1.328;2024-01-15T11:34:10;1.70;58.10
22364;DHT22;11349;53.412;-1.328;2024-01-15T11:42:02;1.80;60.10
22364;DHT22;11349;53.412;-1.328;2024-01-15T11:44:29;1.70;55.80
22364;DHT22;11349;53.412;-1.328;2024-01-15T11:47:03;1.70;53.90
22364;DHT22;11349;53.412;-1.328;2024-01-15T11:52:18;1.80;55.60
22364;DHT22;11349;53.412;-1.328;2024-01-15T11:55:10;1.80;52.00
22364;DHT22;11349;53.412;-1.328;2024-01-15T11:57:47;1.70;52.00
22364;DHT22;11349;53.412;-1.328;2024-01-15T12:00:15;1.60;52.10
22364;DHT22;11349;53.412;-1.328;2024-01-15T12:02:42;1.60;51.50
22364;DHT22;11349;53.412;-1.328;2024-01-15T12:05:09;1.60;49.30
22364;DHT22;11349;53.412;-1.328;2024-01-15T12:07:35;1.60;52.40
22364;DHT22;11349;53.412;-1.328;2024-01-15T12:10:02;1.60;49.60
22364;DHT22;11349;53.412;-1.328;2024-01-15T12:12:37;1.60;49.40
22364;DHT22;11349;53.412;-1.328;2024-01-15T12:15:05;1.70;49.60
22364;DHT22;11349;53.412;-1.328;2024-01-15T12:17:31;1.60;48.40
22364;DHT22;11349;53.412;-1.328;2024-01-15T12:19:57;1.60;51.40
22364;DHT22;11349;53.412;-1.328;2024-01-15T12:22:22;1.60;50.20
22364;DHT22;11349;53.412;-1.328;2024-01-15T12:24:48;1.70;48.10
22364;DHT22;11349;53.412;-1.328;2024-01-15T12:27:14;1.70;46.40
22364;DHT22;11349;53.412;-1.328;2024-01-15T12:29:40;1.70;47.10
22364;DHT22;11349;53.412;-1.328;2024-01-15T12:32:06;1.70;47.60
22364;DHT22;11349;53.412;-1.328;2024-01-15T12:34:33;1.70;47.20
22364;DHT22;11349;53.412;-1.328;2024-01-15T12:36:59;1.80;44.00
22364;DHT22;11349;53.412;-1.328;2024-01-15T12:39:25;1.80;45.30
22364;DHT22;11349;53.412;-1.328;2024-01-15T12:41:51;1.80;45.00
22364;DHT22;11349;53.412;-1.328;2024-01-15T12:44:17;1.80;46.70
22364;DHT22;11349;53.412;-1.328;2024-01-15T12:46:43;1.80;45.40
22364;DHT22;11349;53.412;-1.328;2024-01-15T12:49:08;1.80;46.00
22364;DHT22;11349;53.412;-1.328;2024-01-15T12:51:35;1.80;46.40
22364;DHT22;11349;53.412;-1.328;2024-01-15T12:54:00;1.80;45.50
22364;DHT22;11349;53.412;-1.328;2024-01-15T12:56:26;1.80;45.80
22364;DHT22;11349;53.412;-1.328;2024-01-15T12:58:52;1.70;46.60
22364;DHT22;11349;53.412;-1.328;2024-01-15T13:01:17;1.80;47.40
22364;DHT22;11349;53.412;-1.328;2024-01-15T13:03:43;1.90;47.20
22364;DHT22;11349;53.412;-1.328;2024-01-15T13:06:09;1.80;48.80
22364;DHT22;11349;53.412;-1.328;2024-01-15T13:08:35;1.90;46.80
22364;DHT22;11349;53.412;-1.328;2024-01-15T13:11:00;1.90;46.10
22364;DHT22;11349;53.412;-1.328;2024-01-15T13:13:26;2.00;45.60
22364;DHT22;11349;53.412;-1.328;2024-01-15T13:15:53;2.00;44.90
22364;DHT22;11349;53.412;-1.328;2024-01-15T13:18:19;2.00;44.50
22364;DHT22;11349;53.412;-1.328;2024-01-15T13:20:45;2.00;43.10
22364;DHT22;11349;53.412;-1.328;2024-01-15T13:23:14;2.00;44.90
22364;DHT22;11349;53.412;-1.328;2024-01-15T13:25:40;2.00;42.30
22364;DHT22;11349;53.412;-1.328;2024-01-15T13:28:06;1.90;44.10
22364;DHT22;11349;53.412;-1.328;2024-01-15T13:30:33;1.90;40.30
22364;DHT22;11349;53.412;-1.328;2024-01-15T13:32:59;2.10;44.00
22364;DHT22;11349;53.412;-1.328;2024-01-15T13:35:29;2.00;36.00
22364;DHT22;11349;53.412;-1.328;2024-01-15T13:37:55;2.00;38.60
22364;DHT22;11349;53.412;-1.328;2024-01-15T13:40:21;2.10;38.60
22364;DHT22;11349;53.412;-1.328;2024-01-15T13:42:47;2.00;36.90
22364;DHT22;11349;53.412;-1.328;2024-01-15T13:45:14;2.00;38.00
22364;DHT22;11349;53.412;-1.328;2024-01-15T13:47:42;2.00;37.10
22364;DHT22;11349;53.412;-1.328;2024-01-15T13:50:09;2.10;37.00
22364;DHT22;11349;53.412;-1.328;2024-01-15T13:52:35;2.00;35.00
22364;DHT22;11349;53.412;-1.328;2024-01-15T13:55:01;2.10;34.90
22364;DHT22;11349;53.412;-1.328;2024-01-15T13:57:27;2.10;35.70
22364;DHT22;11349;53.412;-1.328;2024-01-15T13:59:53;2.20;34.10
22364;DHT22;11349;53.412;-1.328;2024-01-15T14:02:18;2.00;36.30
22364;DHT22;11349;53.412;-1.328;2024-01-15T14:04:46;2.00;36.80
22364;DHT22;11349;53.412;-1.328;2024-01-15T14:07:11;2.00;34.90
22364;DHT22;11349;53.412;-1.328;2024-01-15T14:09:37;2.00;37.30
22364;DHT22;11349;53.412;-1.328;2024-01-15T14:12:03;2.00;36.30
22364;DHT22;11349;53.412;-1.328;2024-01-15T14:14:30;2.10;34.40
22364;DHT22;11349;53.412;-1.328;2024-01-15T14:16:55;2.10;35.60
22364;DHT22;11349;53.412;-1.328;2024-01-15T14:19:22;2.10;37.30
22364;DHT22;11349;53.412;-1.328;2024-01-15T14:21:48;2.00;35.60
22364;DHT22;11349;53.412;-1.328;2024-01-15T14:24:13;2.00;35.50
22364;DHT22;11349;53.412;-1.328;2024-01-15T14:26:40;2.00;34.80
22364;DHT22;11349;53.412;-1.328;2024-01-15T14:29:05;2.00;34.80
22364;DHT22;11349;53.412;-1.328;2024-01-15T14:31:31;2.00;33.50
22364;DHT22;11349;53.412;-1.328;2024-01-15T14:33:58;2.00;33.60
22364;DHT22;11349;53.412;-1.328;2024-01-15T14:36:24;2.00;33.10
22364;DHT22;11349;53.412;-1.328;2024-01-15T14:38:50;2.00;32.20
22364;DHT22;11349;53.412;-1.328;2024-01-15T14:41:16;2.00;29.90
22364;DHT22;11349;53.412;-1.328;2024-01-15T14:43:42;2.00;30.50
22364;DHT22;11349;53.412;-1.328;2024-01-15T14:46:08;2.00;32.70
22364;DHT22;11349;53.412;-1.328;2024-01-15T14:48:33;1.90;32.10
22364;DHT22;11349;53.412;-1.328;2024-01-15T14:50:59;2.00;32.40
22364;DHT22;11349;53.412;-1.328;2024-01-15T14:53:25;2.00;30.20
22364;DHT22;11349;53.412;-1.328;2024-01-15T14:55:50;2.00;30.70
22364;DHT22;11349;53.412;-1.328;2024-01-15T14:58:16;2.10;30.20
22364;DHT22;11349;53.412;-1.328;2024-01-15T15:00:42;2.20;29.50
22364;DHT22;11349;53.412;-1.328;2024-01-15T15:03:08;2.20;27.30
22364;DHT22;11349;53.412;-1.328;2024-01-15T15:05:34;2.10;28.80
22364;DHT22;11349;53.412;-1.328;2024-01-15T15:07:59;2.00;27.60
22364;DHT22;11349;53.412;-1.328;2024-01-15T15:10:25;2.00;27.70
22364;DHT22;11349;53.412;-1.328;2024-01-15T15:12:52;2.00;27.10
22364;DHT22;11349;53.412;-1.328;2024-01-15T15:15:17;2.10;29.70
22364;DHT22;11349;53.412;-1.328;2024-01-15T15:17:43;2.00;26.90
22364;DHT22;11349;53.412;-1.328;2024-01-15T15:20:10;1.90;27.30
22364;DHT22;11349;53.412;-1.328;2024-01-15T15:22:35;1.90;28.40
22364;DHT22;11349;53.412;-1.328;2024-01-15T15:25:01;1.80;28.10
22364;DHT22;11349;53.412;-1.328;2024-01-15T15:27:27;1.80;29.10
22364;DHT22;11349;53.412;-1.328;2024-01-15T15:29:54;1.80;29.00
22364;DHT22;11349;53.412;-1.328;2024-01-15T15:32:20;1.70;28.60
22364;DHT22;11349;53.412;-1.328;2024-01-15T15:34:45;1.70;28.20
22364;DHT22;11349;53.412;-1.328;2024-01-15T15:37:11;1.70;28.00